Overcast
Mostly cloudy and cirrus
Overcast
Clear, few cirrus
Clear, cloudless sky
Clear, cloudless sky
Clear with few low clouds
(°F)
48°
48°
47°
47°
45°
45°
43°
43°
42°
42°
40°
40°
39°
39°
(°F)
39°
39°
37°
36°
35°
33°
32°
WSW
WSW
WSW
SW
SW
SW
SW
(mph)
10-21
8-17
7-15
6-15
6-14
6-13
6-13
(in)
0
0
0
0
0
0
0
(%)
7
0
0
0
0
0
0

Sun elevation

/ 3.3°
sun-icon
UV 3
05:33
19:37
Waxing gibbous moon (98°)
11:02
03:38

METAR for 52.17°N 20.97°E (EPWA)

Time Conditions Temperature/
Dewpoint
Wind Visibility Weather Clouds Pressure Change Raw
VFR 50°F / 33.8°F 240º 10kt 9700m - Clouds and Visibility OK 1000 No Significant change EPWA 161630Z 24010KT CAVOK 10/01 Q1000 NOSIG
VFR 50°F / 32°F 230º 12kt 9700m - Few Clouds 4600ft 1000 No Significant change EPWA 161600Z 23012KT 9999 FEW046 10/00 Q1000 NOSIG
VFR 50°F / 33.8°F 230º 9kt 9700m - Scattered Clouds 4800ft 1000 No Significant change EPWA 161530Z 23009KT 9999 SCT048 10/01 Q1000 NOSIG
VFR 50°F / 33.8°F 230º variable 200º to 260º 11kt 9700m - Scattered Clouds 4800ft 1000 No Significant change EPWA 161500Z 23011KT 200V260 9999 SCT048 10/01 Q1000 NOSIG
VFR 50°F / 32°F 240º variable 200º to 270º 13kt 9700m - Scattered Clouds 4600ft 1000 No Significant change EPWA 161430Z 24013KT 200V270 9999 SCT046 10/00 Q1000 NOSIG
VFR 50°F / 33.8°F 250º 13kt 9700m - Scattered Clouds 4600ft 1000 No Significant change EPWA 161400Z 25013KT 9999 SCT046 10/01 Q1000 NOSIG
VFR 50°F / 33.8°F 250º variable 220º to 280º 13kt 9700m - Scattered Clouds 4600ft 1000 No Significant change EPWA 161330Z 25013KT 220V280 9999 SCT046 10/01 Q1000 NOSIG
VFR 50°F / 32°F 240º 12kt 9700m - Scattered Clouds 4600ft 1000 No Significant change EPWA 161300Z 24012KT 9999 SCT046 10/00 Q1000 NOSIG
VFR 48.2°F / 32°F 250º variable 220º to 280º 11kt 9700m - Broken Clouds 4600ft 1000 No Significant change EPWA 161230Z 25011KT 220V280 9999 BKN046 09/00 Q1000 NOSIG
VFR 48.2°F / 32°F 240º variable 210º to 270º 12kt 9700m - Broken Clouds 4600ft 1000 No Significant change EPWA 161200Z 24012KT 210V270 9999 BKN046 09/M00 Q1000 NOSIG
VFR 48.2°F / 32°F 250º 12kt 9700m - Broken Clouds 4600ft 1000 No Significant change EPWA 161130Z 25012KT 9999 BKN046 09/00 Q1000 NOSIG
VFR 48.2°F / 30.2°F 260º variable 210º to 280º 15kt 9700m - Scattered Clouds 4600ft 1000 No Significant change EPWA 161100Z 26015KT 210V280 9999 SCT046 09/M01 Q1000 NOSIG
VFR 48.2°F / 33.8°F 250º 13kt 9700m - Broken Clouds 4600ft 1000 No Significant change EPWA 161030Z 25013KT 9999 BKN046 09/01 Q1000 NOSIG
VFR 46.4°F / 32°F 240º variable 200º to 280º 12kt 9700m - Broken Clouds 4600ft 1000 No Significant change EPWA 161000Z 24012KT 200V280 9999 BKN046 08/00 Q1000 NOSIG
VFR 46.4°F / 32°F 250º 14kt 9700m - Broken Clouds 4000ft 1000 No Significant change EPWA 160930Z 25014KT 9999 BKN040 08/00 Q1000 NOSIG
VFR 46.4°F / 32°F 250º variable 220º to 280º 16kt Gust 26kt 9700m - Broken Clouds 4000ft 1000 No Significant change EPWA 160900Z 25016G26KT 220V280 9999 BKN040 08/00 Q1000 NOSIG
VFR 46.4°F / 33.8°F 260º 19kt 9700m - Broken Clouds 3300ft 999 No Significant change EPWA 160830Z 26019KT 9999 BKN033 08/01 Q0999 NOSIG
MVFR 46.4°F / 35.6°F 270º 18kt 9700m - Broken Clouds 3000ft 999 No Significant change EPWA 160800Z 27018KT 9999 BKN030 08/02 Q0999 NOSIG
MVFR 44.6°F / 33.8°F 260º 18kt 9700m - Broken Clouds 2600ft 999 No Significant change EPWA 160730Z 26018KT 9999 BKN026 07/01 Q0999 NOSIG
MVFR 44.6°F / 35.6°F 260º 19kt 9700m - Broken Clouds 2600ft 998 No Significant change EPWA 160700Z 26019KT 9999 BKN026 07/02 Q0998 NOSIG
MVFR 44.6°F / 35.6°F 260º 19kt Gust 29kt 9700m - Broken Clouds 2500ft 998 No Significant change EPWA 160630Z 26019G29KT 9999 BKN025 07/02 Q0998 NOSIG
VFR 44.6°F / 37.4°F 260º 18kt 9700m - Few Clouds 1500ft
Few Clouds 2300ft
998 No Significant change EPWA 160600Z 26018KT 9999 FEW015 FEW023CB 07/03 Q0998 NOSIG
VFR 44.6°F / 39.2°F 260º 23kt Gust 35kt 9700m Light Showers Rain 3.00mm precipitation Few Clouds 1500ft
Scattered Clouds 2400ft
997 No Significant change EPWA 160530Z 26023G35KT 9999 -SHRA FEW015 SCT024CB 07/04 Q0997 NOSIG
MVFR 46.4°F / 42.8°F 250º variable 230º to 290º 13kt Gust 23kt 9700m - Broken Clouds 1700ft 996 No Significant change EPWA 160500Z 25013G23KT 230V290 9999 BKN017 08/06 Q0996 NOSIG

VFR

50°F / 33.8°F

[More]
Wind 240º 10kt
Visibility 9700m
Weather -
Clouds Clouds and Visibility OK
Pressure 1000
Change No Significant change
Raw EPWA 161630Z 24010KT CAVOK 10/01 Q1000 NOSIG

VFR

50°F / 32°F

[More]
Wind 230º 12kt
Visibility 9700m
Weather -
Clouds Few Clouds 4600ft
Pressure 1000
Change No Significant change
Raw EPWA 161600Z 23012KT 9999 FEW046 10/00 Q1000 NOSIG

VFR

50°F / 33.8°F

[More]
Wind 230º 9kt
Visibility 9700m
Weather -
Clouds Scattered Clouds 4800ft
Pressure 1000
Change No Significant change
Raw EPWA 161530Z 23009KT 9999 SCT048 10/01 Q1000 NOSIG

VFR

50°F / 33.8°F

[More]
Wind 230º variable 200º to 260º 11kt
Visibility 9700m
Weather -
Clouds Scattered Clouds 4800ft
Pressure 1000
Change No Significant change
Raw EPWA 161500Z 23011KT 200V260 9999 SCT048 10/01 Q1000 NOSIG

VFR

50°F / 32°F

[More]
Wind 240º variable 200º to 270º 13kt
Visibility 9700m
Weather -
Clouds Scattered Clouds 4600ft
Pressure 1000
Change No Significant change
Raw EPWA 161430Z 24013KT 200V270 9999 SCT046 10/00 Q1000 NOSIG

VFR

50°F / 33.8°F

[More]
Wind 250º 13kt
Visibility 9700m
Weather -
Clouds Scattered Clouds 4600ft
Pressure 1000
Change No Significant change
Raw EPWA 161400Z 25013KT 9999 SCT046 10/01 Q1000 NOSIG

VFR

50°F / 33.8°F

[More]
Wind 250º variable 220º to 280º 13kt
Visibility 9700m
Weather -
Clouds Scattered Clouds 4600ft
Pressure 1000
Change No Significant change
Raw EPWA 161330Z 25013KT 220V280 9999 SCT046 10/01 Q1000 NOSIG

VFR

50°F / 32°F

[More]
Wind 240º 12kt
Visibility 9700m
Weather -
Clouds Scattered Clouds 4600ft
Pressure 1000
Change No Significant change
Raw EPWA 161300Z 24012KT 9999 SCT046 10/00 Q1000 NOSIG

VFR

48.2°F / 32°F

[More]
Wind 250º variable 220º to 280º 11kt
Visibility 9700m
Weather -
Clouds Broken Clouds 4600ft
Pressure 1000
Change No Significant change
Raw EPWA 161230Z 25011KT 220V280 9999 BKN046 09/00 Q1000 NOSIG

VFR

48.2°F / 32°F

[More]
Wind 240º variable 210º to 270º 12kt
Visibility 9700m
Weather -
Clouds Broken Clouds 4600ft
Pressure 1000
Change No Significant change
Raw EPWA 161200Z 24012KT 210V270 9999 BKN046 09/M00 Q1000 NOSIG

VFR

48.2°F / 32°F

[More]
Wind 250º 12kt
Visibility 9700m
Weather -
Clouds Broken Clouds 4600ft
Pressure 1000
Change No Significant change
Raw EPWA 161130Z 25012KT 9999 BKN046 09/00 Q1000 NOSIG

VFR

48.2°F / 30.2°F

[More]
Wind 260º variable 210º to 280º 15kt
Visibility 9700m
Weather -
Clouds Scattered Clouds 4600ft
Pressure 1000
Change No Significant change
Raw EPWA 161100Z 26015KT 210V280 9999 SCT046 09/M01 Q1000 NOSIG

VFR

48.2°F / 33.8°F

[More]
Wind 250º 13kt
Visibility 9700m
Weather -
Clouds Broken Clouds 4600ft
Pressure 1000
Change No Significant change
Raw EPWA 161030Z 25013KT 9999 BKN046 09/01 Q1000 NOSIG

VFR

46.4°F / 32°F

[More]
Wind 240º variable 200º to 280º 12kt
Visibility 9700m
Weather -
Clouds Broken Clouds 4600ft
Pressure 1000
Change No Significant change
Raw EPWA 161000Z 24012KT 200V280 9999 BKN046 08/00 Q1000 NOSIG

VFR

46.4°F / 32°F

[More]
Wind 250º 14kt
Visibility 9700m
Weather -
Clouds Broken Clouds 4000ft
Pressure 1000
Change No Significant change
Raw EPWA 160930Z 25014KT 9999 BKN040 08/00 Q1000 NOSIG

VFR

46.4°F / 32°F

[More]
Wind 250º variable 220º to 280º 16kt Gust 26kt
Visibility 9700m
Weather -
Clouds Broken Clouds 4000ft
Pressure 1000
Change No Significant change
Raw EPWA 160900Z 25016G26KT 220V280 9999 BKN040 08/00 Q1000 NOSIG

VFR

46.4°F / 33.8°F

[More]
Wind 260º 19kt
Visibility 9700m
Weather -
Clouds Broken Clouds 3300ft
Pressure 999
Change No Significant change
Raw EPWA 160830Z 26019KT 9999 BKN033 08/01 Q0999 NOSIG

MVFR

46.4°F / 35.6°F

[More]
Wind 270º 18kt
Visibility 9700m
Weather -
Clouds Broken Clouds 3000ft
Pressure 999
Change No Significant change
Raw EPWA 160800Z 27018KT 9999 BKN030 08/02 Q0999 NOSIG

MVFR

44.6°F / 33.8°F

[More]
Wind 260º 18kt
Visibility 9700m
Weather -
Clouds Broken Clouds 2600ft
Pressure 999
Change No Significant change
Raw EPWA 160730Z 26018KT 9999 BKN026 07/01 Q0999 NOSIG

MVFR

44.6°F / 35.6°F

[More]
Wind 260º 19kt
Visibility 9700m
Weather -
Clouds Broken Clouds 2600ft
Pressure 998
Change No Significant change
Raw EPWA 160700Z 26019KT 9999 BKN026 07/02 Q0998 NOSIG

MVFR

44.6°F / 35.6°F

[More]
Wind 260º 19kt Gust 29kt
Visibility 9700m
Weather -
Clouds Broken Clouds 2500ft
Pressure 998
Change No Significant change
Raw EPWA 160630Z 26019G29KT 9999 BKN025 07/02 Q0998 NOSIG

VFR

44.6°F / 37.4°F

[More]
Wind 260º 18kt
Visibility 9700m
Weather -
Clouds Few Clouds 1500ft
Few Clouds 2300ft
Pressure 998
Change No Significant change
Raw EPWA 160600Z 26018KT 9999 FEW015 FEW023CB 07/03 Q0998 NOSIG

VFR

44.6°F / 39.2°F

[More]
Wind 260º 23kt Gust 35kt
Visibility 9700m
Weather Light Showers Rain 3.00mm precipitation
Clouds Few Clouds 1500ft
Scattered Clouds 2400ft
Pressure 997
Change No Significant change
Raw EPWA 160530Z 26023G35KT 9999 -SHRA FEW015 SCT024CB 07/04 Q0997 NOSIG

MVFR

46.4°F / 42.8°F

[More]
Wind 250º variable 230º to 290º 13kt Gust 23kt
Visibility 9700m
Weather -
Clouds Broken Clouds 1700ft
Pressure 996
Change No Significant change
Raw EPWA 160500Z 25013G23KT 230V290 9999 BKN017 08/06 Q0996 NOSIG

TAF for 52.17°N 20.97°E (EPWA)

From till


From till Wind 250º 10kt. Visibility 9700m. Nil Significant Cloud.
Temporarly from till Light Showers Rain . Scattered Clouds 4000ft.
With 30% probability, Temporarly from till Wind 18kt. Gust 31kt. Visibility 3000m. Thunderstorm Rain . Broken Clouds 4000ft.
Becoming from till
Becoming from till
Temporarly from till Wind 360º 15kt. Gust 25kt. Visibility 3000m. Showers Rain . Broken Clouds 1200ft. Broken Clouds 2500ft.
Becoming from till

Raw: TAF EPWA 161430Z 1615/1715 25010KT CAVOK TEMPO 1615/1619 -SHRA SCT040CB PROB30 TEMPO 1616/1618 VRB18G31KT 3000 TSRA BKN040CB BECMG 1618/1621 19006KT BECMG 1704/1707 29010KT TEMPO 1707/1714 36015G25KT 3000 SHRA BKN012 BKN025CB BECMG 1709/1712 35010KT

Radar and precipitation nowcast for 52.17°N 20.97°E

Drizzle
Light
Moderate
Heavy
Very Heavy
Hail

The location marker is placed on 52.17°N 20.97°E. This animation shows the precipitation radar for the selected time range, as well as a 2h forecast. Orange crosses indicate lightning. Data provided by nowcast.de (available in USA, Europe, Australia). Drizzle or light snow fall might be invisible for the radar. Precipitation intensity is colour coded, ranging from turquoise to red.

Current satellite and rain images for 52.17°N 20.97°E

The location marker is placed on 52.17°N 20.97°E. [More]

The real-time satellite image combines visible light during daytime with infrared radiation during nighttime. At night, the image is not dark as infrared radiation can detect temperature differences. Unfortunately, low clouds and fog are difficult to distinguish from ground temperatures and thus can be almost invisible during the night. Meteosat satellite images for Europe are updated in real-time every 5 minutes. GOES-16/GOES-17 (North & South America) and Himawari (Asia) images update every 10 minutes.

Precipitation is estimated from radar and satellites. Precipitation estimates from satellites are less accurate at night than during daytime.

© 2024 meteoblue, NOAA Satellites GOES-16 and EUMETSAT. Lightning data provided by nowcast.

Back to top
×
Hey there,
seems like you are using an ad blocker.

Advertising is essential to maintain our free website with unique detail and accuracy.

Please whitelist www.meteoblue.com on your ad blocker or consider buying one of our products:

Already have a subscription?
Then please login.